sensor_id;sensor_type;location;lat;lon;timestamp;P1;durP1;ratioP1;P2;durP2;ratioP2
10987;SDS011;5547;42.672;23.230;2023-07-28T00:00:14;4.60;;;4.20;;
10987;SDS011;5547;42.672;23.230;2023-07-28T00:03:15;4.20;;;3.80;;
10987;SDS011;5547;42.672;23.230;2023-07-28T00:06:15;4.70;;;4.30;;
10987;SDS011;5547;42.672;23.230;2023-07-28T00:09:15;4.27;;;3.87;;
10987;SDS011;5547;42.672;23.230;2023-07-28T00:12:16;4.30;;;3.90;;
10987;SDS011;5547;42.672;23.230;2023-07-28T00:15:16;4.20;;;3.80;;
10987;SDS011;5547;42.672;23.230;2023-07-28T00:18:17;4.43;;;3.78;;
10987;SDS011;5547;42.672;23.230;2023-07-28T00:21:18;4.07;;;3.78;;
10987;SDS011;5547;42.672;23.230;2023-07-28T00:24:19;5.03;;;4.63;;
10987;SDS011;5547;42.672;23.230;2023-07-28T00:27:19;4.93;;;4.43;;
10987;SDS011;5547;42.672;23.230;2023-07-28T00:30:19;4.88;;;4.43;;
10987;SDS011;5547;42.672;23.230;2023-07-28T00:33:20;5.63;;;3.87;;
10987;SDS011;5547;42.672;23.230;2023-07-28T00:36:20;5.17;;;4.20;;
10987;SDS011;5547;42.672;23.230;2023-07-28T00:39:21;4.67;;;4.17;;
10987;SDS011;5547;42.672;23.230;2023-07-28T00:42:21;5.20;;;4.45;;
10987;SDS011;5547;42.672;23.230;2023-07-28T00:45:21;4.83;;;4.20;;
10987;SDS011;5547;42.672;23.230;2023-07-28T00:48:22;4.50;;;4.13;;
10987;SDS011;5547;42.672;23.230;2023-07-28T00:51:23;5.60;;;4.40;;
10987;SDS011;5547;42.672;23.230;2023-07-28T00:54:23;4.70;;;4.30;;
10987;SDS011;5547;42.672;23.230;2023-07-28T00:57:24;4.63;;;4.23;;
10987;SDS011;5547;42.672;23.230;2023-07-28T01:00:24;4.78;;;4.38;;
10987;SDS011;5547;42.672;23.230;2023-07-28T01:03:25;5.30;;;4.80;;
10987;SDS011;5547;42.672;23.230;2023-07-28T01:06:37;5.40;;;4.90;;
10987;SDS011;5547;42.672;23.230;2023-07-28T01:09:49;5.33;;;4.83;;
10987;SDS011;5547;42.672;23.230;2023-07-28T01:12:53;5.70;;;4.65;;
10987;SDS011;5547;42.672;23.230;2023-07-28T01:15:53;5.57;;;5.03;;
10987;SDS011;5547;42.672;23.230;2023-07-28T01:18:54;5.37;;;4.87;;
10987;SDS011;5547;42.672;23.230;2023-07-28T01:28:43;6.93;;;5.82;;
10987;SDS011;5547;42.672;23.230;2023-07-28T01:31:47;8.17;;;6.03;;
10987;SDS011;5547;42.672;23.230;2023-07-28T01:34:48;7.78;;;6.25;;
10987;SDS011;5547;42.672;23.230;2023-07-28T01:37:48;6.30;;;5.70;;
10987;SDS011;5547;42.672;23.230;2023-07-28T01:40:50;7.35;;;6.55;;
10987;SDS011;5547;42.672;23.230;2023-07-28T01:43:51;7.53;;;6.83;;
10987;SDS011;5547;42.672;23.230;2023-07-28T01:46:55;7.53;;;6.80;;
10987;SDS011;5547;42.672;23.230;2023-07-28T01:49:55;8.10;;;7.30;;
10987;SDS011;5547;42.672;23.230;2023-07-28T01:52:56;8.70;;;7.90;;
10987;SDS011;5547;42.672;23.230;2023-07-28T01:55:56;13.33;;;10.07;;
10987;SDS011;5547;42.672;23.230;2023-07-28T01:58:57;9.97;;;8.97;;
10987;SDS011;5547;42.672;23.230;2023-07-28T02:01:57;9.60;;;8.63;;
10987;SDS011;5547;42.672;23.230;2023-07-28T02:04:58;9.10;;;8.20;;
10987;SDS011;5547;42.672;23.230;2023-07-28T02:07:58;7.47;;;6.60;;
10987;SDS011;5547;42.672;23.230;2023-07-28T02:10:59;6.45;;;5.85;;
10987;SDS011;5547;42.672;23.230;2023-07-28T02:14:00;5.97;;;5.37;;
10987;SDS011;5547;42.672;23.230;2023-07-28T02:17:00;6.22;;;5.57;;
10987;SDS011;5547;42.672;23.230;2023-07-28T02:20:01;6.47;;;5.63;;
10987;SDS011;5547;42.672;23.230;2023-07-28T02:23:03;5.85;;;5.35;;
10987;SDS011;5547;42.672;23.230;2023-07-28T02:26:03;4.63;;;4.13;;
10987;SDS011;5547;42.672;23.230;2023-07-28T02:29:04;5.68;;;5.13;;
10987;SDS011;5547;42.672;23.230;2023-07-28T02:32:04;6.40;;;5.80;;
10987;SDS011;5547;42.672;23.230;2023-07-28T02:35:05;7.10;;;6.20;;
10987;SDS011;5547;42.672;23.230;2023-07-28T02:38:06;7.47;;;6.70;;
10987;SDS011;5547;42.672;23.230;2023-07-28T02:41:06;6.97;;;6.20;;
10987;SDS011;5547;42.672;23.230;2023-07-28T02:44:07;7.23;;;6.53;;
10987;SDS011;5547;42.672;23.230;2023-07-28T02:47:07;6.63;;;6.03;;
10987;SDS011;5547;42.672;23.230;2023-07-28T02:50:08;7.18;;;6.57;;
10987;SDS011;5547;42.672;23.230;2023-07-28T02:53:09;7.30;;;6.60;;
10987;SDS011;5547;42.672;23.230;2023-07-28T02:56:09;7.55;;;6.85;;
10987;SDS011;5547;42.672;23.230;2023-07-28T02:59:09;8.90;;;6.73;;
10987;SDS011;5547;42.672;23.230;2023-07-28T03:02:10;7.53;;;6.83;;
10987;SDS011;5547;42.672;23.230;2023-07-28T03:05:10;6.93;;;6.33;;
10987;SDS011;5547;42.672;23.230;2023-07-28T03:08:11;7.50;;;6.90;;
10987;SDS011;5547;42.672;23.230;2023-07-28T03:11:11;7.10;;;6.40;;
10987;SDS011;5547;42.672;23.230;2023-07-28T03:14:11;7.03;;;6.33;;
10987;SDS011;5547;42.672;23.230;2023-07-28T03:17:13;7.60;;;6.90;;
10987;SDS011;5547;42.672;23.230;2023-07-28T03:20:13;8.27;;;7.47;;
10987;SDS011;5547;42.672;23.230;2023-07-28T03:23:13;7.27;;;6.50;;
10987;SDS011;5547;42.672;23.230;2023-07-28T03:26:14;8.40;;;7.60;;
10987;SDS011;5547;42.672;23.230;2023-07-28T03:29:14;8.30;;;7.37;;
10987;SDS011;5547;42.672;23.230;2023-07-28T03:32:15;7.83;;;6.87;;
10987;SDS011;5547;42.672;23.230;2023-07-28T03:35:15;7.77;;;6.93;;
10987;SDS011;5547;42.672;23.230;2023-07-28T03:38:15;8.27;;;7.57;;
10987;SDS011;5547;42.672;23.230;2023-07-28T03:41:16;7.93;;;7.13;;
10987;SDS011;5547;42.672;23.230;2023-07-28T03:44:16;8.70;;;7.60;;
10987;SDS011;5547;42.672;23.230;2023-07-28T03:47:19;7.50;;;6.70;;
10987;SDS011;5547;42.672;23.230;2023-07-28T03:50:19;7.72;;;7.03;;
10987;SDS011;5547;42.672;23.230;2023-07-28T03:53:20;6.87;;;6.17;;
10987;SDS011;5547;42.672;23.230;2023-07-28T03:56:20;7.47;;;6.57;;
10987;SDS011;5547;42.672;23.230;2023-07-28T03:59:21;7.50;;;6.53;;
10987;SDS011;5547;42.672;23.230;2023-07-28T04:02:21;7.03;;;6.32;;
10987;SDS011;5547;42.672;23.230;2023-07-28T04:05:22;8.90;;;6.57;;
10987;SDS011;5547;42.672;23.230;2023-07-28T04:08:22;7.00;;;6.23;;
10987;SDS011;5547;42.672;23.230;2023-07-28T04:11:22;7.38;;;6.68;;
10987;SDS011;5547;42.672;23.230;2023-07-28T04:14:23;7.17;;;6.33;;
10987;SDS011;5547;42.672;23.230;2023-07-28T04:17:23;6.50;;;5.70;;
10987;SDS011;5547;42.672;23.230;2023-07-28T04:20:24;6.25;;;5.75;;
10987;SDS011;5547;42.672;23.230;2023-07-28T04:23:24;7.63;;;6.10;;
10987;SDS011;5547;42.672;23.230;2023-07-28T04:26:25;6.67;;;6.07;;
10987;SDS011;5547;42.672;23.230;2023-07-28T04:29:25;7.03;;;6.32;;
10987;SDS011;5547;42.672;23.230;2023-07-28T04:32:27;6.75;;;6.15;;
10987;SDS011;5547;42.672;23.230;2023-07-28T04:35:29;7.30;;;6.10;;
10987;SDS011;5547;42.672;23.230;2023-07-28T04:38:30;6.45;;;5.85;;
10987;SDS011;5547;42.672;23.230;2023-07-28T04:41:30;7.30;;;6.33;;
10987;SDS011;5547;42.672;23.230;2023-07-28T04:44:31;7.20;;;6.53;;
10987;SDS011;5547;42.672;23.230;2023-07-28T04:47:31;7.50;;;6.45;;
10987;SDS011;5547;42.672;23.230;2023-07-28T04:50:32;8.40;;;6.17;;
10987;SDS011;5547;42.672;23.230;2023-07-28T04:53:33;7.22;;;6.03;;
10987;SDS011;5547;42.672;23.230;2023-07-28T04:56:34;6.17;;;5.57;;
10987;SDS011;5547;42.672;23.230;2023-07-28T04:59:34;6.67;;;5.97;;
10987;SDS011;5547;42.672;23.230;2023-07-28T05:02:34;7.95;;;6.22;;
10987;SDS011;5547;42.672;23.230;2023-07-28T05:05:35;7.97;;;6.47;;
10987;SDS011;5547;42.672;23.230;2023-07-28T05:08:35;9.10;;;6.40;;
10987;SDS011;5547;42.672;23.230;2023-07-28T05:11:36;7.53;;;6.47;;
10987;SDS011;5547;42.672;23.230;2023-07-28T05:14:36;7.57;;;6.43;;
10987;SDS011;5547;42.672;23.230;2023-07-28T05:17:37;8.13;;;6.03;;
10987;SDS011;5547;42.672;23.230;2023-07-28T05:20:37;9.10;;;6.50;;
10987;SDS011;5547;42.672;23.230;2023-07-28T05:23:38;10.37;;;6.07;;
10987;SDS011;5547;42.672;23.230;2023-07-28T05:26:38;8.88;;;6.78;;
10987;SDS011;5547;42.672;23.230;2023-07-28T05:29:39;10.37;;;6.40;;
10987;SDS011;5547;42.672;23.230;2023-07-28T05:32:39;7.93;;;6.70;;
10987;SDS011;5547;42.672;23.230;2023-07-28T05:35:40;9.63;;;6.28;;
10987;SDS011;5547;42.672;23.230;2023-07-28T05:38:40;7.95;;;6.30;;
10987;SDS011;5547;42.672;23.230;2023-07-28T05:41:40;9.97;;;6.27;;
10987;SDS011;5547;42.672;23.230;2023-07-28T05:44:41;7.87;;;6.03;;
10987;SDS011;5547;42.672;23.230;2023-07-28T05:47:41;7.87;;;5.53;;
10987;SDS011;5547;42.672;23.230;2023-07-28T05:50:42;6.85;;;5.40;;
10987;SDS011;5547;42.672;23.230;2023-07-28T05:53:42;7.30;;;5.30;;
10987;SDS011;5547;42.672;23.230;2023-07-28T05:56:43;7.40;;;5.37;;
10987;SDS011;5547;42.672;23.230;2023-07-28T05:59:43;7.13;;;5.20;;
10987;SDS011;5547;42.672;23.230;2023-07-28T06:02:44;7.03;;;4.72;;
10987;SDS011;5547;42.672;23.230;2023-07-28T06:05:44;6.53;;;5.00;;
10987;SDS011;5547;42.672;23.230;2023-07-28T06:08:44;7.07;;;5.07;;
10987;SDS011;5547;42.672;23.230;2023-07-28T06:11:45;9.27;;;5.13;;
10987;SDS011;5547;42.672;23.230;2023-07-28T06:14:45;7.93;;;5.47;;
10987;SDS011;5547;42.672;23.230;2023-07-28T06:17:46;6.40;;;5.20;;
10987;SDS011;5547;42.672;23.230;2023-07-28T06:20:46;7.75;;;5.53;;
10987;SDS011;5547;42.672;23.230;2023-07-28T06:23:46;6.80;;;4.73;;
10987;SDS011;5547;42.672;23.230;2023-07-28T06:26:47;6.20;;;5.07;;
10987;SDS011;5547;42.672;23.230;2023-07-28T06:29:47;7.27;;;5.40;;
10987;SDS011;5547;42.672;23.230;2023-07-28T06:32:48;6.23;;;4.87;;
10987;SDS011;5547;42.672;23.230;2023-07-28T06:35:48;5.57;;;4.53;;
10987;SDS011;5547;42.672;23.230;2023-07-28T06:38:49;5.10;;;4.03;;
10987;SDS011;5547;42.672;23.230;2023-07-28T06:41:50;9.95;;;4.80;;
10987;SDS011;5547;42.672;23.230;2023-07-28T06:44:51;6.00;;;4.60;;
10987;SDS011;5547;42.672;23.230;2023-07-28T06:47:51;6.30;;;4.83;;
10987;SDS011;5547;42.672;23.230;2023-07-28T06:50:51;5.90;;;4.83;;
10987;SDS011;5547;42.672;23.230;2023-07-28T06:53:52;7.50;;;5.30;;
10987;SDS011;5547;42.672;23.230;2023-07-28T06:56:52;5.93;;;4.80;;
10987;SDS011;5547;42.672;23.230;2023-07-28T06:59:53;5.73;;;4.87;;
10987;SDS011;5547;42.672;23.230;2023-07-28T07:02:54;5.10;;;4.32;;
10987;SDS011;5547;42.672;23.230;2023-07-28T07:05:55;6.27;;;4.43;;
10987;SDS011;5547;42.672;23.230;2023-07-28T07:08:55;7.27;;;4.53;;
10987;SDS011;5547;42.672;23.230;2023-07-28T07:11:55;7.10;;;4.75;;
10987;SDS011;5547;42.672;23.230;2023-07-28T07:14:56;5.50;;;4.82;;
10987;SDS011;5547;42.672;23.230;2023-07-28T07:17:56;7.00;;;5.10;;
10987;SDS011;5547;42.672;23.230;2023-07-28T07:21:01;6.57;;;4.47;;
10987;SDS011;5547;42.672;23.230;2023-07-28T07:24:03;8.02;;;4.85;;
10987;SDS011;5547;42.672;23.230;2023-07-28T07:27:04;7.23;;;4.80;;
10987;SDS011;5547;42.672;23.230;2023-07-28T07:30:05;6.22;;;4.22;;
10987;SDS011;5547;42.672;23.230;2023-07-28T07:33:06;7.78;;;4.93;;
10987;SDS011;5547;42.672;23.230;2023-07-28T07:36:13;5.23;;;4.20;;
10987;SDS011;5547;42.672;23.230;2023-07-28T07:39:17;7.07;;;4.82;;
10987;SDS011;5547;42.672;23.230;2023-07-28T07:42:17;5.70;;;5.10;;
10987;SDS011;5547;42.672;23.230;2023-07-28T07:45:17;7.53;;;4.78;;
10987;SDS011;5547;42.672;23.230;2023-07-28T07:48:18;9.45;;;4.45;;
10987;SDS011;5547;42.672;23.230;2023-07-28T07:51:18;7.90;;;4.70;;
10987;SDS011;5547;42.672;23.230;2023-07-28T07:54:19;4.70;;;4.17;;
10987;SDS011;5547;42.672;23.230;2023-07-28T07:57:19;9.10;;;5.27;;
10987;SDS011;5547;42.672;23.230;2023-07-28T08:00:20;6.17;;;4.63;;
10987;SDS011;5547;42.672;23.230;2023-07-28T08:03:20;8.50;;;5.17;;
10987;SDS011;5547;42.672;23.230;2023-07-28T08:06:20;8.90;;;5.30;;
10987;SDS011;5547;42.672;23.230;2023-07-28T08:09:21;9.93;;;5.18;;
10987;SDS011;5547;42.672;23.230;2023-07-28T08:12:22;6.53;;;4.67;;
10987;SDS011;5547;42.672;23.230;2023-07-28T08:15:22;6.70;;;4.27;;
10987;SDS011;5547;42.672;23.230;2023-07-28T08:18:22;6.33;;;4.70;;
10987;SDS011;5547;42.672;23.230;2023-07-28T08:21:23;8.10;;;4.47;;
10987;SDS011;5547;42.672;23.230;2023-07-28T08:24:24;6.40;;;4.07;;
10987;SDS011;5547;42.672;23.230;2023-07-28T08:27:24;7.57;;;4.40;;
10987;SDS011;5547;42.672;23.230;2023-07-28T08:30:25;5.93;;;4.27;;
10987;SDS011;5547;42.672;23.230;2023-07-28T08:33:25;8.23;;;4.33;;
10987;SDS011;5547;42.672;23.230;2023-07-28T08:36:25;7.25;;;4.05;;
10987;SDS011;5547;42.672;23.230;2023-07-28T08:39:26;6.40;;;3.90;;
10987;SDS011;5547;42.672;23.230;2023-07-28T08:42:28;9.07;;;4.33;;
10987;SDS011;5547;42.672;23.230;2023-07-28T08:45:29;5.95;;;3.58;;
10987;SDS011;5547;42.672;23.230;2023-07-28T08:48:30;6.90;;;3.97;;
10987;SDS011;5547;42.672;23.230;2023-07-28T08:51:30;5.83;;;3.40;;
10987;SDS011;5547;42.672;23.230;2023-07-28T08:54:31;5.30;;;3.70;;
10987;SDS011;5547;42.672;23.230;2023-07-28T08:57:31;5.03;;;3.40;;
10987;SDS011;5547;42.672;23.230;2023-07-28T09:00:31;5.73;;;3.90;;
10987;SDS011;5547;42.672;23.230;2023-07-28T09:03:33;4.25;;;3.38;;
10987;SDS011;5547;42.672;23.230;2023-07-28T09:06:37;5.82;;;3.45;;
10987;SDS011;5547;42.672;23.230;2023-07-28T09:09:38;5.53;;;3.92;;
10987;SDS011;5547;42.672;23.230;2023-07-28T09:12:47;6.72;;;3.83;;
10987;SDS011;5547;42.672;23.230;2023-07-28T09:15:49;6.72;;;3.83;;
10987;SDS011;5547;42.672;23.230;2023-07-28T09:18:49;5.17;;;3.77;;
10987;SDS011;5547;42.672;23.230;2023-07-28T09:21:59;5.90;;;3.90;;
10987;SDS011;5547;42.672;23.230;2023-07-28T09:25:09;5.30;;;3.90;;
10987;SDS011;5547;42.672;23.230;2023-07-28T09:28:12;6.32;;;3.40;;
10987;SDS011;5547;42.672;23.230;2023-07-28T09:31:14;7.13;;;3.57;;
10987;SDS011;5547;42.672;23.230;2023-07-28T09:34:27;4.90;;;3.13;;
10987;SDS011;5547;42.672;23.230;2023-07-28T09:37:28;5.68;;;3.20;;
10987;SDS011;5547;42.672;23.230;2023-07-28T09:40:28;6.10;;;3.40;;
10987;SDS011;5547;42.672;23.230;2023-07-28T09:43:30;4.55;;;3.47;;
10987;SDS011;5547;42.672;23.230;2023-07-28T09:46:30;4.97;;;3.40;;
10987;SDS011;5547;42.672;23.230;2023-07-28T09:49:37;3.75;;;3.00;;
10987;SDS011;5547;42.672;23.230;2023-07-28T09:52:49;6.30;;;3.40;;
10987;SDS011;5547;42.672;23.230;2023-07-28T09:55:53;4.50;;;3.08;;
10987;SDS011;5547;42.672;23.230;2023-07-28T09:58:55;6.35;;;3.42;;
10987;SDS011;5547;42.672;23.230;2023-07-28T10:02:00;4.93;;;3.42;;
10987;SDS011;5547;42.672;23.230;2023-07-28T10:05:02;5.28;;;2.97;;
10987;SDS011;5547;42.672;23.230;2023-07-28T10:08:02;4.40;;;2.40;;
10987;SDS011;5547;42.672;23.230;2023-07-28T10:11:04;4.50;;;2.30;;
10987;SDS011;5547;42.672;23.230;2023-07-28T10:14:05;6.33;;;3.20;;
10987;SDS011;5547;42.672;23.230;2023-07-28T10:17:15;3.95;;;3.20;;
10987;SDS011;5547;42.672;23.230;2023-07-28T10:23:36;5.53;;;3.17;;
10987;SDS011;5547;42.672;23.230;2023-07-28T10:26:40;6.88;;;3.35;;
10987;SDS011;5547;42.672;23.230;2023-07-28T10:29:41;4.47;;;2.60;;
10987;SDS011;5547;42.672;23.230;2023-07-28T10:32:56;3.70;;;2.40;;
10987;SDS011;5547;42.672;23.230;2023-07-28T10:35:58;4.65;;;2.90;;
10987;SDS011;5547;42.672;23.230;2023-07-28T10:39:18;3.65;;;2.28;;
10987;SDS011;5547;42.672;23.230;2023-07-28T10:42:19;2.90;;;1.87;;
10987;SDS011;5547;42.672;23.230;2023-07-28T10:45:21;2.67;;;2.30;;
10987;SDS011;5547;42.672;23.230;2023-07-28T10:48:23;3.90;;;1.92;;
10987;SDS011;5547;42.672;23.230;2023-07-28T10:51:24;2.67;;;1.90;;
10987;SDS011;5547;42.672;23.230;2023-07-28T10:54:30;4.10;;;2.10;;
10987;SDS011;5547;42.672;23.230;2023-07-28T10:57:31;3.30;;;2.20;;
10987;SDS011;5547;42.672;23.230;2023-07-28T11:00:31;2.63;;;2.33;;
10987;SDS011;5547;42.672;23.230;2023-07-28T11:03:32;2.90;;;2.08;;
10987;SDS011;5547;42.672;23.230;2023-07-28T11:06:33;3.33;;;1.92;;
10987;SDS011;5547;42.672;23.230;2023-07-28T11:09:33;2.97;;;2.10;;
10987;SDS011;5547;42.672;23.230;2023-07-28T11:12:34;2.93;;;2.20;;
10987;SDS011;5547;42.672;23.230;2023-07-28T11:15:34;3.43;;;2.10;;
10987;SDS011;5547;42.672;23.230;2023-07-28T11:18:35;2.47;;;2.20;;
10987;SDS011;5547;42.672;23.230;2023-07-28T11:21:36;3.65;;;2.30;;
10987;SDS011;5547;42.672;23.230;2023-07-28T11:24:38;3.20;;;2.25;;
10987;SDS011;5547;42.672;23.230;2023-07-28T11:27:39;2.50;;;2.10;;
10987;SDS011;5547;42.672;23.230;2023-07-28T11:30:40;3.70;;;2.60;;
10987;SDS011;5547;42.672;23.230;2023-07-28T11:33:42;3.50;;;2.33;;
10987;SDS011;5547;42.672;23.230;2023-07-28T11:36:42;2.75;;;2.10;;
10987;SDS011;5547;42.672;23.230;2023-07-28T11:39:43;3.08;;;2.20;;
10987;SDS011;5547;42.672;23.230;2023-07-28T11:42:44;3.60;;;2.40;;
10987;SDS011;5547;42.672;23.230;2023-07-28T11:45:46;4.50;;;2.50;;
10987;SDS011;5547;42.672;23.230;2023-07-28T11:48:46;3.20;;;2.27;;
10987;SDS011;5547;42.672;23.230;2023-07-28T11:51:48;3.80;;;2.60;;
10987;SDS011;5547;42.672;23.230;2023-07-28T11:54:51;2.78;;;2.40;;
10987;SDS011;5547;42.672;23.230;2023-07-28T11:57:53;3.35;;;2.45;;
10987;SDS011;5547;42.672;23.230;2023-07-28T12:00:54;3.20;;;2.70;;
10987;SDS011;5547;42.672;23.230;2023-07-28T12:03:54;3.08;;;2.58;;
10987;SDS011;5547;42.672;23.230;2023-07-28T12:07:01;4.20;;;2.22;;
10987;SDS011;5547;42.672;23.230;2023-07-28T12:10:06;3.00;;;2.50;;
10987;SDS011;5547;42.672;23.230;2023-07-28T12:13:09;3.97;;;2.30;;
10987;SDS011;5547;42.672;23.230;2023-07-28T12:16:10;4.20;;;2.40;;
10987;SDS011;5547;42.672;23.230;2023-07-28T12:19:30;3.37;;;2.80;;
10987;SDS011;5547;42.672;23.230;2023-07-28T12:22:30;2.50;;;2.30;;
10987;SDS011;5547;42.672;23.230;2023-07-28T12:25:31;3.85;;;2.53;;
10987;SDS011;5547;42.672;23.230;2023-07-28T12:28:32;3.33;;;2.90;;
10987;SDS011;5547;42.672;23.230;2023-07-28T12:31:32;2.70;;;2.17;;
10987;SDS011;5547;42.672;23.230;2023-07-28T12:34:33;2.93;;;2.37;;
10987;SDS011;5547;42.672;23.230;2023-07-28T12:37:34;3.90;;;2.50;;
10987;SDS011;5547;42.672;23.230;2023-07-28T12:40:35;3.25;;;2.58;;
10987;SDS011;5547;42.672;23.230;2023-07-28T12:43:36;3.33;;;2.40;;
10987;SDS011;5547;42.672;23.230;2023-07-28T12:46:36;3.57;;;2.67;;
10987;SDS011;5547;42.672;23.230;2023-07-28T12:49:37;2.80;;;2.40;;
10987;SDS011;5547;42.672;23.230;2023-07-28T12:52:38;2.83;;;2.57;;
10987;SDS011;5547;42.672;23.230;2023-07-28T12:55:38;3.40;;;2.43;;
10987;SDS011;5547;42.672;23.230;2023-07-28T12:58:39;3.10;;;2.35;;
10987;SDS011;5547;42.672;23.230;2023-07-28T13:01:39;3.15;;;2.20;;
10987;SDS011;5547;42.672;23.230;2023-07-28T13:04:40;2.70;;;2.10;;
10987;SDS011;5547;42.672;23.230;2023-07-28T13:07:40;3.00;;;2.30;;
10987;SDS011;5547;42.672;23.230;2023-07-28T13:10:41;2.70;;;2.50;;
10987;SDS011;5547;42.672;23.230;2023-07-28T13:13:41;3.10;;;2.37;;
10987;SDS011;5547;42.672;23.230;2023-07-28T13:16:41;2.77;;;2.17;;
10987;SDS011;5547;42.672;23.230;2023-07-28T13:19:42;2.90;;;2.20;;
10987;SDS011;5547;42.672;23.230;2023-07-28T13:22:43;3.47;;;2.40;;
10987;SDS011;5547;42.672;23.230;2023-07-28T13:25:43;2.83;;;2.50;;
10987;SDS011;5547;42.672;23.230;2023-07-28T13:28:44;4.63;;;2.38;;
10987;SDS011;5547;42.672;23.230;2023-07-28T13:31:47;2.53;;;2.33;;
10987;SDS011;5547;42.672;23.230;2023-07-28T13:34:47;3.50;;;2.20;;
10987;SDS011;5547;42.672;23.230;2023-07-28T13:37:47;3.60;;;2.20;;
10987;SDS011;5547;42.672;23.230;2023-07-28T13:40:48;2.57;;;2.13;;
10987;SDS011;5547;42.672;23.230;2023-07-28T13:43:48;3.03;;;2.28;;
10987;SDS011;5547;42.672;23.230;2023-07-28T13:46:49;3.47;;;2.50;;
10987;SDS011;5547;42.672;23.230;2023-07-28T13:49:49;2.55;;;2.03;;
10987;SDS011;5547;42.672;23.230;2023-07-28T13:52:49;2.70;;;2.28;;
10987;SDS011;5547;42.672;23.230;2023-07-28T13:55:50;3.63;;;2.50;;
10987;SDS011;5547;42.672;23.230;2023-07-28T13:58:51;2.53;;;2.20;;
10987;SDS011;5547;42.672;23.230;2023-07-28T14:01:51;2.60;;;2.40;;
10987;SDS011;5547;42.672;23.230;2023-07-28T14:04:52;3.03;;;2.20;;
10987;SDS011;5547;42.672;23.230;2023-07-28T14:07:52;2.90;;;2.60;;
10987;SDS011;5547;42.672;23.230;2023-07-28T14:10:52;2.73;;;2.30;;
10987;SDS011;5547;42.672;23.230;2023-07-28T14:13:53;2.78;;;2.17;;
10987;SDS011;5547;42.672;23.230;2023-07-28T14:16:53;2.40;;;2.15;;
10987;SDS011;5547;42.672;23.230;2023-07-28T14:19:54;2.83;;;2.13;;
10987;SDS011;5547;42.672;23.230;2023-07-28T14:22:54;3.17;;;2.30;;
10987;SDS011;5547;42.672;23.230;2023-07-28T14:25:55;3.20;;;2.17;;
10987;SDS011;5547;42.672;23.230;2023-07-28T14:28:55;2.45;;;2.10;;
10987;SDS011;5547;42.672;23.230;2023-07-28T14:31:56;3.40;;;2.10;;
10987;SDS011;5547;42.672;23.230;2023-07-28T14:34:56;3.83;;;2.20;;
10987;SDS011;5547;42.672;23.230;2023-07-28T14:37:57;2.40;;;2.00;;
10987;SDS011;5547;42.672;23.230;2023-07-28T14:40:57;3.65;;;2.20;;
10987;SDS011;5547;42.672;23.230;2023-07-28T14:43:57;2.70;;;2.05;;
10987;SDS011;5547;42.672;23.230;2023-07-28T14:46:58;2.80;;;2.40;;
10987;SDS011;5547;42.672;23.230;2023-07-28T14:49:59;3.13;;;2.20;;
10987;SDS011;5547;42.672;23.230;2023-07-28T14:52:59;3.13;;;2.23;;
10987;SDS011;5547;42.672;23.230;2023-07-28T14:56:00;2.83;;;2.00;;
10987;SDS011;5547;42.672;23.230;2023-07-28T14:59:02;3.00;;;2.30;;
10987;SDS011;5547;42.672;23.230;2023-07-28T15:02:03;3.17;;;2.30;;
10987;SDS011;5547;42.672;23.230;2023-07-28T15:05:04;2.67;;;2.25;;
10987;SDS011;5547;42.672;23.230;2023-07-28T15:08:04;2.60;;;2.30;;
10987;SDS011;5547;42.672;23.230;2023-07-28T15:11:05;2.90;;;2.20;;
10987;SDS011;5547;42.672;23.230;2023-07-28T15:14:05;2.37;;;2.07;;
10987;SDS011;5547;42.672;23.230;2023-07-28T15:17:07;2.55;;;2.00;;
10987;SDS011;5547;42.672;23.230;2023-07-28T15:20:07;2.50;;;2.10;;
10987;SDS011;5547;42.672;23.230;2023-07-28T15:23:08;3.92;;;2.25;;
10987;SDS011;5547;42.672;23.230;2023-07-28T15:26:09;3.00;;;2.00;;
10987;SDS011;5547;42.672;23.230;2023-07-28T15:29:10;3.50;;;2.10;;
10987;SDS011;5547;42.672;23.230;2023-07-28T15:32:11;3.27;;;2.03;;
10987;SDS011;5547;42.672;23.230;2023-07-28T15:35:11;3.30;;;2.07;;
10987;SDS011;5547;42.672;23.230;2023-07-28T15:38:12;3.65;;;2.10;;
10987;SDS011;5547;42.672;23.230;2023-07-28T15:41:12;3.33;;;2.00;;
10987;SDS011;5547;42.672;23.230;2023-07-28T15:44:13;2.30;;;2.10;;
10987;SDS011;5547;42.672;23.230;2023-07-28T15:47:13;3.90;;;2.10;;
10987;SDS011;5547;42.672;23.230;2023-07-28T15:50:13;4.70;;;2.00;;
10987;SDS011;5547;42.672;23.230;2023-07-28T15:53:14;4.13;;;2.20;;
10987;SDS011;5547;42.672;23.230;2023-07-28T15:56:14;3.30;;;2.07;;
10987;SDS011;5547;42.672;23.230;2023-07-28T15:59:14;2.83;;;1.80;;
10987;SDS011;5547;42.672;23.230;2023-07-28T16:02:15;3.40;;;2.00;;
10987;SDS011;5547;42.672;23.230;2023-07-28T16:05:16;3.77;;;1.70;;
10987;SDS011;5547;42.672;23.230;2023-07-28T16:08:16;2.30;;;1.90;;
10987;SDS011;5547;42.672;23.230;2023-07-28T16:11:16;2.60;;;1.95;;
10987;SDS011;5547;42.672;23.230;2023-07-28T16:14:17;2.25;;;1.90;;
10987;SDS011;5547;42.672;23.230;2023-07-28T16:17:17;3.13;;;1.87;;
10987;SDS011;5547;42.672;23.230;2023-07-28T16:20:18;2.90;;;1.70;;
10987;SDS011;5547;42.672;23.230;2023-07-28T16:23:19;2.50;;;1.90;;
10987;SDS011;5547;42.672;23.230;2023-07-28T16:26:20;2.55;;;1.80;;
10987;SDS011;5547;42.672;23.230;2023-07-28T16:29:20;3.27;;;1.70;;
10987;SDS011;5547;42.672;23.230;2023-07-28T16:32:22;3.77;;;1.87;;
10987;SDS011;5547;42.672;23.230;2023-07-28T16:35:22;2.73;;;1.70;;
10987;SDS011;5547;42.672;23.230;2023-07-28T16:38:23;2.53;;;1.80;;
10987;SDS011;5547;42.672;23.230;2023-07-28T16:41:23;2.47;;;1.80;;
10987;SDS011;5547;42.672;23.230;2023-07-28T16:44:24;3.38;;;2.08;;
10987;SDS011;5547;42.672;23.230;2023-07-28T16:47:24;2.37;;;1.87;;
10987;SDS011;5547;42.672;23.230;2023-07-28T16:50:24;2.20;;;1.83;;
10987;SDS011;5547;42.672;23.230;2023-07-28T16:53:25;2.90;;;1.70;;
10987;SDS011;5547;42.672;23.230;2023-07-28T16:56:25;2.33;;;1.93;;
10987;SDS011;5547;42.672;23.230;2023-07-28T16:59:26;2.57;;;1.90;;
10987;SDS011;5547;42.672;23.230;2023-07-28T17:02:26;2.70;;;1.70;;
10987;SDS011;5547;42.672;23.230;2023-07-28T17:05:26;2.10;;;1.80;;
10987;SDS011;5547;42.672;23.230;2023-07-28T17:08:27;2.80;;;1.80;;
10987;SDS011;5547;42.672;23.230;2023-07-28T17:11:27;2.90;;;1.70;;
10987;SDS011;5547;42.672;23.230;2023-07-28T17:14:28;3.10;;;1.80;;
10987;SDS011;5547;42.672;23.230;2023-07-28T17:17:28;2.33;;;1.85;;
10987;SDS011;5547;42.672;23.230;2023-07-28T17:20:29;2.90;;;1.80;;
10987;SDS011;5547;42.672;23.230;2023-07-28T17:23:30;2.50;;;1.98;;
10987;SDS011;5547;42.672;23.230;2023-07-28T17:26:30;3.73;;;2.20;;
10987;SDS011;5547;42.672;23.230;2023-07-28T17:29:31;2.83;;;2.23;;
10987;SDS011;5547;42.672;23.230;2023-07-28T17:32:31;3.73;;;2.97;;
10987;SDS011;5547;42.672;23.230;2023-07-28T17:35:32;6.23;;;2.90;;
10987;SDS011;5547;42.672;23.230;2023-07-28T17:38:33;8.18;;;2.75;;
10987;SDS011;5547;42.672;23.230;2023-07-28T17:41:33;7.47;;;2.97;;
10987;SDS011;5547;42.672;23.230;2023-07-28T17:44:34;6.70;;;2.50;;
10987;SDS011;5547;42.672;23.230;2023-07-28T17:47:34;7.80;;;2.70;;
10987;SDS011;5547;42.672;23.230;2023-07-28T17:50:37;6.97;;;2.63;;
10987;SDS011;5547;42.672;23.230;2023-07-28T17:53:38;6.60;;;2.20;;
10987;SDS011;5547;42.672;23.230;2023-07-28T17:56:38;6.97;;;2.83;;
10987;SDS011;5547;42.672;23.230;2023-07-28T17:59:38;4.40;;;2.38;;
10987;SDS011;5547;42.672;23.230;2023-07-28T18:02:39;5.73;;;2.30;;
10987;SDS011;5547;42.672;23.230;2023-07-28T18:05:39;3.40;;;2.20;;
10987;SDS011;5547;42.672;23.230;2023-07-28T18:08:40;3.63;;;1.97;;
10987;SDS011;5547;42.672;23.230;2023-07-28T18:11:40;6.43;;;2.17;;
10987;SDS011;5547;42.672;23.230;2023-07-28T18:14:40;3.60;;;2.17;;
10987;SDS011;5547;42.672;23.230;2023-07-28T18:17:41;3.95;;;2.00;;
10987;SDS011;5547;42.672;23.230;2023-07-28T18:20:41;5.00;;;2.30;;